Terminal Aerodrome Forecast
Issued by NWS

Home | Current Version | Previous Version | Text Only | Print | Product List | Glossary On
Versions: 1 2 3 4 5 6 7 8 9 10 11 12 13 14 15 16 17 18
000
FTUS43 KLSX 262300
TAFSUS
TAF
KSUS 262338Z 2700/2724 VRB04KT P6SM SCT050 BKN120
     FM270200 VRB03KT P6SM SCT250
      TEMPO 2709/2713 4SM BR
     FM271800 03005KT P6SM SCT040 BKN250=

USA.gov is the U.S. government's official web portal to all federal, state and local government web resources and services.